sensor_id;sensor_type;location;lat;lon;timestamp;pressure;altitude;pressure_sealevel;temperature
76898;BMP180;65856;52.178;21.176;2023-04-01T00:01:41;98565.40;;;10.00
76898;BMP180;65856;52.178;21.176;2023-04-01T00:04:11;98562.20;;;10.02
76898;BMP180;65856;52.178;21.176;2023-04-01T00:06:42;98556.60;;;10.00
76898;BMP180;65856;52.178;21.176;2023-04-01T00:09:13;98557.20;;;10.00
76898;BMP180;65856;52.178;21.176;2023-04-01T00:11:43;98559.60;;;10.00
76898;BMP180;65856;52.178;21.176;2023-04-01T00:14:15;98556.80;;;10.00
76898;BMP180;65856;52.178;21.176;2023-04-01T00:16:45;98548.60;;;10.00
76898;BMP180;65856;52.178;21.176;2023-04-01T00:19:16;98544.60;;;10.02
76898;BMP180;65856;52.178;21.176;2023-04-01T00:21:47;98540.60;;;10.08
76898;BMP180;65856;52.178;21.176;2023-04-01T00:24:17;98543.00;;;10.10
76898;BMP180;65856;52.178;21.176;2023-04-01T00:26:48;98542.20;;;10.10
76898;BMP180;65856;52.178;21.176;2023-04-01T00:29:18;98547.00;;;10.10
76898;BMP180;65856;52.178;21.176;2023-04-01T00:31:49;98527.20;;;10.10
76898;BMP180;65856;52.178;21.176;2023-04-01T00:34:20;98529.80;;;10.10
76898;BMP180;65856;52.178;21.176;2023-04-01T00:36:51;98520.00;;;10.10
76898;BMP180;65856;52.178;21.176;2023-04-01T00:39:23;98522.00;;;10.10
76898;BMP180;65856;52.178;21.176;2023-04-01T00:41:54;98525.00;;;10.10
76898;BMP180;65856;52.178;21.176;2023-04-01T00:44:29;98523.00;;;10.10
76898;BMP180;65856;52.178;21.176;2023-04-01T00:47:00;98523.20;;;10.10
76898;BMP180;65856;52.178;21.176;2023-04-01T00:49:37;98519.60;;;10.10
76898;BMP180;65856;52.178;21.176;2023-04-01T00:52:13;98525.40;;;10.10
76898;BMP180;65856;52.178;21.176;2023-04-01T00:54:47;98523.40;;;10.10
76898;BMP180;65856;52.178;21.176;2023-04-01T00:57:25;98528.80;;;10.10
76898;BMP180;65856;52.178;21.176;2023-04-01T00:59:58;98527.00;;;10.00
76898;BMP180;65856;52.178;21.176;2023-04-01T01:02:29;98532.00;;;10.00
76898;BMP180;65856;52.178;21.176;2023-04-01T01:05:02;98536.60;;;10.00
76898;BMP180;65856;52.178;21.176;2023-04-01T01:07:42;98536.80;;;10.00
76898;BMP180;65856;52.178;21.176;2023-04-01T01:10:20;98537.40;;;10.00
76898;BMP180;65856;52.178;21.176;2023-04-01T01:13:06;98539.20;;;10.00
76898;BMP180;65856;52.178;21.176;2023-04-01T01:15:46;98530.60;;;10.00
76898;BMP180;65856;52.178;21.176;2023-04-01T01:18:26;98530.00;;;10.00
76898;BMP180;65856;52.178;21.176;2023-04-01T01:21:32;98534.00;;;10.00
76898;BMP180;65856;52.178;21.176;2023-04-01T01:24:36;98529.40;;;10.00
76898;BMP180;65856;52.178;21.176;2023-04-01T01:27:13;98533.80;;;10.00
76898;BMP180;65856;52.178;21.176;2023-04-01T01:30:10;98533.00;;;10.00
76898;BMP180;65856;52.178;21.176;2023-04-01T01:33:04;98526.00;;;9.92
76898;BMP180;65856;52.178;21.176;2023-04-01T01:35:40;98522.80;;;9.90
76898;BMP180;65856;52.178;21.176;2023-04-01T01:38:18;98530.00;;;9.90
76898;BMP180;65856;52.178;21.176;2023-04-01T01:40:53;98532.00;;;9.80
76898;BMP180;65856;52.178;21.176;2023-04-01T01:43:31;98533.00;;;9.80
76898;BMP180;65856;52.178;21.176;2023-04-01T01:46:08;98534.80;;;9.80
76898;BMP180;65856;52.178;21.176;2023-04-01T01:48:41;98532.60;;;9.70
76898;BMP180;65856;52.178;21.176;2023-04-01T01:51:12;98533.20;;;9.70
76898;BMP180;65856;52.178;21.176;2023-04-01T01:53:43;98526.20;;;9.70
76898;BMP180;65856;52.178;21.176;2023-04-01T01:56:14;98529.40;;;9.70
76898;BMP180;65856;52.178;21.176;2023-04-01T01:58:49;98529.60;;;9.70
76898;BMP180;65856;52.178;21.176;2023-04-01T02:01:25;98520.00;;;9.70
76898;BMP180;65856;52.178;21.176;2023-04-01T02:03:59;98518.00;;;9.70
76898;BMP180;65856;52.178;21.176;2023-04-01T02:06:34;98516.40;;;9.70
76898;BMP180;65856;52.178;21.176;2023-04-01T02:09:08;98512.80;;;9.64
76898;BMP180;65856;52.178;21.176;2023-04-01T02:11:47;98507.40;;;9.66
76898;BMP180;65856;52.178;21.176;2023-04-01T02:14:22;98505.00;;;9.70
76898;BMP180;65856;52.178;21.176;2023-04-01T02:16:57;98502.60;;;9.70
76898;BMP180;65856;52.178;21.176;2023-04-01T02:19:33;98501.00;;;9.70
76898;BMP180;65856;52.178;21.176;2023-04-01T02:22:10;98501.20;;;9.70
76898;BMP180;65856;52.178;21.176;2023-04-01T02:24:43;98495.00;;;9.70
76898;BMP180;65856;52.178;21.176;2023-04-01T02:27:15;98493.40;;;9.70
76898;BMP180;65856;52.178;21.176;2023-04-01T02:29:46;98494.20;;;9.72
76898;BMP180;65856;52.178;21.176;2023-04-01T02:32:18;98490.40;;;9.70
76898;BMP180;65856;52.178;21.176;2023-04-01T02:34:50;98490.60;;;9.80
76898;BMP180;65856;52.178;21.176;2023-04-01T02:37:21;98485.40;;;9.74
76898;BMP180;65856;52.178;21.176;2023-04-01T02:39:51;98485.80;;;9.78
76898;BMP180;65856;52.178;21.176;2023-04-01T02:42:22;98487.20;;;9.80
76898;BMP180;65856;52.178;21.176;2023-04-01T02:44:53;98486.40;;;9.80
76898;BMP180;65856;52.178;21.176;2023-04-01T02:47:23;98486.60;;;9.80
76898;BMP180;65856;52.178;21.176;2023-04-01T02:49:54;98489.60;;;9.80
76898;BMP180;65856;52.178;21.176;2023-04-01T02:52:28;98493.40;;;9.80
76898;BMP180;65856;52.178;21.176;2023-04-01T02:54:59;98490.80;;;9.80
76898;BMP180;65856;52.178;21.176;2023-04-01T02:57:30;98489.80;;;9.80
76898;BMP180;65856;52.178;21.176;2023-04-01T03:00:01;98485.80;;;9.80
76898;BMP180;65856;52.178;21.176;2023-04-01T03:02:32;98494.40;;;9.82
76898;BMP180;65856;52.178;21.176;2023-04-01T03:05:02;98492.40;;;9.80
76898;BMP180;65856;52.178;21.176;2023-04-01T03:07:33;98491.00;;;9.80
76898;BMP180;65856;52.178;21.176;2023-04-01T03:10:05;98494.00;;;9.80
76898;BMP180;65856;52.178;21.176;2023-04-01T03:12:34;98495.80;;;9.80
76898;BMP180;65856;52.178;21.176;2023-04-01T03:15:08;98501.20;;;9.70
76898;BMP180;65856;52.178;21.176;2023-04-01T03:17:40;98499.80;;;9.70
76898;BMP180;65856;52.178;21.176;2023-04-01T03:20:12;98502.20;;;9.70
76898;BMP180;65856;52.178;21.176;2023-04-01T03:22:44;98507.40;;;9.70
76898;BMP180;65856;52.178;21.176;2023-04-01T03:25:15;98511.40;;;9.70
76898;BMP180;65856;52.178;21.176;2023-04-01T03:27:45;98515.80;;;9.68
76898;BMP180;65856;52.178;21.176;2023-04-01T03:30:16;98515.80;;;9.62
76898;BMP180;65856;52.178;21.176;2023-04-01T03:32:47;98521.80;;;9.64
76898;BMP180;65856;52.178;21.176;2023-04-01T03:35:18;98520.80;;;9.60
76898;BMP180;65856;52.178;21.176;2023-04-01T03:37:49;98521.80;;;9.60
76898;BMP180;65856;52.178;21.176;2023-04-01T03:40:20;98523.40;;;9.68
76898;BMP180;65856;52.178;21.176;2023-04-01T03:42:51;98524.20;;;9.70
76898;BMP180;65856;52.178;21.176;2023-04-01T03:45:22;98522.80;;;9.70
76898;BMP180;65856;52.178;21.176;2023-04-01T03:47:53;98524.40;;;9.68
76898;BMP180;65856;52.178;21.176;2023-04-01T03:50:24;98526.00;;;9.62
76898;BMP180;65856;52.178;21.176;2023-04-01T03:52:55;98530.80;;;9.60
76898;BMP180;65856;52.178;21.176;2023-04-01T03:55:25;98529.00;;;9.60
76898;BMP180;65856;52.178;21.176;2023-04-01T03:57:56;98538.20;;;9.60
76898;BMP180;65856;52.178;21.176;2023-04-01T04:00:27;98540.20;;;9.56
76898;BMP180;65856;52.178;21.176;2023-04-01T04:02:58;98544.00;;;9.50
76898;BMP180;65856;52.178;21.176;2023-04-01T04:05:29;98551.00;;;9.50
76898;BMP180;65856;52.178;21.176;2023-04-01T04:08:00;98547.60;;;9.50
76898;BMP180;65856;52.178;21.176;2023-04-01T04:10:31;98548.40;;;9.50
76898;BMP180;65856;52.178;21.176;2023-04-01T04:13:01;98552.40;;;9.50
76898;BMP180;65856;52.178;21.176;2023-04-01T04:15:32;98552.40;;;9.40
76898;BMP180;65856;52.178;21.176;2023-04-01T04:18:02;98554.40;;;9.40
76898;BMP180;65856;52.178;21.176;2023-04-01T04:20:33;98556.80;;;9.40
76898;BMP180;65856;52.178;21.176;2023-04-01T04:23:05;98558.80;;;9.40
76898;BMP180;65856;52.178;21.176;2023-04-01T04:25:35;98564.80;;;9.40
76898;BMP180;65856;52.178;21.176;2023-04-01T04:28:06;98563.20;;;9.40
76898;BMP180;65856;52.178;21.176;2023-04-01T04:30:37;98568.60;;;9.40
76898;BMP180;65856;52.178;21.176;2023-04-01T04:33:07;98567.20;;;9.40
76898;BMP180;65856;52.178;21.176;2023-04-01T04:35:38;98564.00;;;9.38
76898;BMP180;65856;52.178;21.176;2023-04-01T04:38:09;98564.00;;;9.40
76898;BMP180;65856;52.178;21.176;2023-04-01T04:40:40;98563.00;;;9.40
76898;BMP180;65856;52.178;21.176;2023-04-01T04:43:14;98564.60;;;9.40
76898;BMP180;65856;52.178;21.176;2023-04-01T04:45:46;98571.00;;;9.40
76898;BMP180;65856;52.178;21.176;2023-04-01T04:48:18;98574.00;;;9.40
76898;BMP180;65856;52.178;21.176;2023-04-01T04:50:50;98571.40;;;9.40
76898;BMP180;65856;52.178;21.176;2023-04-01T04:53:21;98571.20;;;9.44
76898;BMP180;65856;52.178;21.176;2023-04-01T04:55:52;98576.20;;;9.40
76898;BMP180;65856;52.178;21.176;2023-04-01T04:58:23;98577.00;;;9.44
76898;BMP180;65856;52.178;21.176;2023-04-01T05:00:54;98575.20;;;9.48
76898;BMP180;65856;52.178;21.176;2023-04-01T05:03:24;98573.60;;;9.50
76898;BMP180;65856;52.178;21.176;2023-04-01T05:05:56;98576.80;;;9.50
76898;BMP180;65856;52.178;21.176;2023-04-01T05:08:27;98578.80;;;9.50
76898;BMP180;65856;52.178;21.176;2023-04-01T05:10:57;98576.80;;;9.50
76898;BMP180;65856;52.178;21.176;2023-04-01T05:13:28;98576.00;;;9.60
76898;BMP180;65856;52.178;21.176;2023-04-01T05:15:59;98576.40;;;9.60
76898;BMP180;65856;52.178;21.176;2023-04-01T05:18:30;98577.20;;;9.62
76898;BMP180;65856;52.178;21.176;2023-04-01T05:21:00;98582.80;;;9.60
76898;BMP180;65856;52.178;21.176;2023-04-01T05:23:32;98586.40;;;9.70
76898;BMP180;65856;52.178;21.176;2023-04-01T05:26:06;98588.20;;;9.70
76898;BMP180;65856;52.178;21.176;2023-04-01T05:28:37;98589.60;;;9.80
76898;BMP180;65856;52.178;21.176;2023-04-01T05:31:09;98588.00;;;9.80
76898;BMP180;65856;52.178;21.176;2023-04-01T05:33:38;98584.60;;;9.80
76898;BMP180;65856;52.178;21.176;2023-04-01T05:36:13;98586.60;;;9.90
76898;BMP180;65856;52.178;21.176;2023-04-01T05:38:44;98582.40;;;9.90
76898;BMP180;65856;52.178;21.176;2023-04-01T05:41:16;98589.40;;;9.92
76898;BMP180;65856;52.178;21.176;2023-04-01T05:43:47;98587.60;;;10.00
76898;BMP180;65856;52.178;21.176;2023-04-01T05:46:17;98588.20;;;10.00
76898;BMP180;65856;52.178;21.176;2023-04-01T05:48:48;98592.60;;;10.00
76898;BMP180;65856;52.178;21.176;2023-04-01T05:51:19;98591.80;;;10.00
76898;BMP180;65856;52.178;21.176;2023-04-01T05:53:49;98595.00;;;10.00
76898;BMP180;65856;52.178;21.176;2023-04-01T05:56:20;98596.60;;;10.00
76898;BMP180;65856;52.178;21.176;2023-04-01T05:58:54;98597.80;;;10.00
76898;BMP180;65856;52.178;21.176;2023-04-01T06:01:25;98599.00;;;10.10
76898;BMP180;65856;52.178;21.176;2023-04-01T06:03:55;98594.40;;;10.16
76898;BMP180;65856;52.178;21.176;2023-04-01T06:06:29;98597.20;;;10.20
76898;BMP180;65856;52.178;21.176;2023-04-01T06:09:10;98598.60;;;10.20
76898;BMP180;65856;52.178;21.176;2023-04-01T06:12:00;98601.60;;;10.20
76898;BMP180;65856;52.178;21.176;2023-04-01T06:14:47;98609.40;;;10.30
76898;BMP180;65856;52.178;21.176;2023-04-01T06:17:48;98608.20;;;10.30
76898;BMP180;65856;52.178;21.176;2023-04-01T06:20:32;98600.60;;;10.40
76898;BMP180;65856;52.178;21.176;2023-04-01T06:23:26;98599.40;;;10.40
76898;BMP180;65856;52.178;21.176;2023-04-01T06:26:14;98602.80;;;10.50
76898;BMP180;65856;52.178;21.176;2023-04-01T06:29:10;98605.80;;;10.50
76898;BMP180;65856;52.178;21.176;2023-04-01T06:32:15;98608.40;;;10.60
76898;BMP180;65856;52.178;21.176;2023-04-01T06:35:17;98613.80;;;10.60
76898;BMP180;65856;52.178;21.176;2023-04-01T06:38:11;98609.80;;;10.60
76898;BMP180;65856;52.178;21.176;2023-04-01T06:41:23;98612.60;;;10.70
76898;BMP180;65856;52.178;21.176;2023-04-01T06:44:11;98600.80;;;10.70
76898;BMP180;65856;52.178;21.176;2023-04-01T06:46:50;98602.80;;;10.70
76898;BMP180;65856;52.178;21.176;2023-04-01T06:49:44;98603.80;;;10.80
76898;BMP180;65856;52.178;21.176;2023-04-01T06:52:26;98602.80;;;10.80
76898;BMP180;65856;52.178;21.176;2023-04-01T06:55:17;98607.80;;;10.80
76898;BMP180;65856;52.178;21.176;2023-04-01T06:57:54;98605.60;;;10.80
76898;BMP180;65856;52.178;21.176;2023-04-01T07:00:31;98605.60;;;10.90
76898;BMP180;65856;52.178;21.176;2023-04-01T07:03:16;98606.80;;;11.00
76898;BMP180;65856;52.178;21.176;2023-04-01T07:05:49;98604.60;;;11.00
76898;BMP180;65856;52.178;21.176;2023-04-01T07:08:24;98602.00;;;11.10
76898;BMP180;65856;52.178;21.176;2023-04-01T07:11:00;98606.40;;;11.12
76898;BMP180;65856;52.178;21.176;2023-04-01T07:13:39;98604.00;;;11.20
76898;BMP180;65856;52.178;21.176;2023-04-01T07:16:17;98603.80;;;11.24
76898;BMP180;65856;52.178;21.176;2023-04-01T07:18:54;98603.40;;;11.30
76898;BMP180;65856;52.178;21.176;2023-04-01T07:21:33;98603.60;;;11.30
76898;BMP180;65856;52.178;21.176;2023-04-01T07:24:13;98611.60;;;11.30
76898;BMP180;65856;52.178;21.176;2023-04-01T07:26:46;98606.40;;;11.38
76898;BMP180;65856;52.178;21.176;2023-04-01T07:29:18;98613.00;;;11.50
76898;BMP180;65856;52.178;21.176;2023-04-01T07:32:12;98614.00;;;11.58
76898;BMP180;65856;52.178;21.176;2023-04-01T07:34:58;98617.80;;;11.58
76898;BMP180;65856;52.178;21.176;2023-04-01T07:37:41;98616.80;;;11.50
76898;BMP180;65856;52.178;21.176;2023-04-01T07:40:26;98621.00;;;11.50
76898;BMP180;65856;52.178;21.176;2023-04-01T07:43:17;98620.20;;;11.50
76898;BMP180;65856;52.178;21.176;2023-04-01T07:45:57;98618.80;;;11.40
76898;BMP180;65856;52.178;21.176;2023-04-01T07:48:41;98623.20;;;11.40
76898;BMP180;65856;52.178;21.176;2023-04-01T07:51:20;98619.00;;;11.38
76898;BMP180;65856;52.178;21.176;2023-04-01T07:54:02;98622.20;;;11.40
76898;BMP180;65856;52.178;21.176;2023-04-01T07:56:43;98617.00;;;11.40
76898;BMP180;65856;52.178;21.176;2023-04-01T07:59:24;98616.00;;;11.40
76898;BMP180;65856;52.178;21.176;2023-04-01T08:02:10;98617.20;;;11.48
76898;BMP180;65856;52.178;21.176;2023-04-01T08:05:00;98613.40;;;11.60
76898;BMP180;65856;52.178;21.176;2023-04-01T08:07:44;98617.00;;;11.70
76898;BMP180;65856;52.178;21.176;2023-04-01T08:10:23;98618.80;;;11.80
76898;BMP180;65856;52.178;21.176;2023-04-01T08:13:10;98618.60;;;11.90
76898;BMP180;65856;52.178;21.176;2023-04-01T08:15:52;98618.60;;;11.90
76898;BMP180;65856;52.178;21.176;2023-04-01T08:18:37;98625.20;;;11.92
76898;BMP180;65856;52.178;21.176;2023-04-01T08:21:16;98628.00;;;12.00
76898;BMP180;65856;52.178;21.176;2023-04-01T08:23:52;98632.80;;;12.00
76898;BMP180;65856;52.178;21.176;2023-04-01T08:26:36;98634.40;;;12.00
76898;BMP180;65856;52.178;21.176;2023-04-01T08:29:15;98634.00;;;12.00
76898;BMP180;65856;52.178;21.176;2023-04-01T08:31:55;98636.00;;;11.90
76898;BMP180;65856;52.178;21.176;2023-04-01T08:34:34;98637.80;;;11.80
76898;BMP180;65856;52.178;21.176;2023-04-01T08:37:10;98643.00;;;11.80
76898;BMP180;65856;52.178;21.176;2023-04-01T08:39:48;98640.60;;;11.86
76898;BMP180;65856;52.178;21.176;2023-04-01T08:42:48;98640.80;;;11.90
76898;BMP180;65856;52.178;21.176;2023-04-01T08:45:45;98644.40;;;12.00
76898;BMP180;65856;52.178;21.176;2023-04-01T08:48:36;98648.20;;;12.00
76898;BMP180;65856;52.178;21.176;2023-04-01T08:51:49;98648.80;;;12.00
76898;BMP180;65856;52.178;21.176;2023-04-01T08:54:47;98646.40;;;12.00
76898;BMP180;65856;52.178;21.176;2023-04-01T08:57:34;98652.60;;;12.10
76898;BMP180;65856;52.178;21.176;2023-04-01T09:00:24;98648.00;;;12.20
76898;BMP180;65856;52.178;21.176;2023-04-01T09:03:24;98653.20;;;12.30
76898;BMP180;65856;52.178;21.176;2023-04-01T09:06:20;98651.20;;;12.40
76898;BMP180;65856;52.178;21.176;2023-04-01T09:09:21;98649.00;;;12.50
76898;BMP180;65856;52.178;21.176;2023-04-01T09:12:30;98649.20;;;12.50
76898;BMP180;65856;52.178;21.176;2023-04-01T09:15:20;98646.00;;;12.50
76898;BMP180;65856;52.178;21.176;2023-04-01T09:18:34;98651.60;;;12.50
76898;BMP180;65856;52.178;21.176;2023-04-01T09:21:34;98652.00;;;12.50
76898;BMP180;65856;52.178;21.176;2023-04-01T09:24:34;98658.40;;;12.40
76898;BMP180;65856;52.178;21.176;2023-04-01T09:27:17;98662.80;;;12.40
76898;BMP180;65856;52.178;21.176;2023-04-01T09:30:39;98663.20;;;12.30
76898;BMP180;65856;52.178;21.176;2023-04-01T09:36:47;98661.20;;;12.40
76898;BMP180;65856;52.178;21.176;2023-04-01T09:39:40;98662.20;;;12.40
76898;BMP180;65856;52.178;21.176;2023-04-01T09:42:43;98666.80;;;12.40
76898;BMP180;65856;52.178;21.176;2023-04-01T09:45:40;98663.20;;;12.50
76898;BMP180;65856;52.178;21.176;2023-04-01T09:48:29;98659.40;;;12.50
76898;BMP180;65856;52.178;21.176;2023-04-01T09:51:17;98657.60;;;12.50
76898;BMP180;65856;52.178;21.176;2023-04-01T09:54:07;98659.00;;;12.44
76898;BMP180;65856;52.178;21.176;2023-04-01T09:57:10;98663.20;;;12.40
76898;BMP180;65856;52.178;21.176;2023-04-01T10:00:10;98668.80;;;12.30
76898;BMP180;65856;52.178;21.176;2023-04-01T10:03:23;98675.00;;;12.28
76898;BMP180;65856;52.178;21.176;2023-04-01T10:06:47;98675.20;;;12.20
76898;BMP180;65856;52.178;21.176;2023-04-01T10:13:19;98679.60;;;12.10
76898;BMP180;65856;52.178;21.176;2023-04-01T10:16:23;98682.80;;;12.10
76898;BMP180;65856;52.178;21.176;2023-04-01T10:19:39;98693.00;;;12.00
76898;BMP180;65856;52.178;21.176;2023-04-01T10:22:44;98696.00;;;11.90
76898;BMP180;65856;52.178;21.176;2023-04-01T10:25:53;98705.40;;;11.70
76898;BMP180;65856;52.178;21.176;2023-04-01T10:28:53;98704.00;;;11.60
76898;BMP180;65856;52.178;21.176;2023-04-01T10:31:56;98700.80;;;11.50
76898;BMP180;65856;52.178;21.176;2023-04-01T10:35:02;98698.60;;;11.50
76898;BMP180;65856;52.178;21.176;2023-04-01T10:38:08;98696.80;;;11.44
76898;BMP180;65856;52.178;21.176;2023-04-01T10:41:13;98696.40;;;11.40
76898;BMP180;65856;52.178;21.176;2023-04-01T10:44:24;98697.80;;;11.40
76898;BMP180;65856;52.178;21.176;2023-04-01T10:50:37;98698.00;;;11.40
76898;BMP180;65856;52.178;21.176;2023-04-01T10:53:50;98700.00;;;11.40
76898;BMP180;65856;52.178;21.176;2023-04-01T10:56:53;98700.80;;;11.50
76898;BMP180;65856;52.178;21.176;2023-04-01T11:00:03;98700.80;;;11.50
76898;BMP180;65856;52.178;21.176;2023-04-01T11:03:11;98699.20;;;11.50
76898;BMP180;65856;52.178;21.176;2023-04-01T11:10:02;98699.60;;;11.60
76898;BMP180;65856;52.178;21.176;2023-04-01T11:16:52;98701.80;;;11.70
76898;BMP180;65856;52.178;21.176;2023-04-01T11:20:07;98693.00;;;11.80
76898;BMP180;65856;52.178;21.176;2023-04-01T11:23:10;98691.20;;;12.00
76898;BMP180;65856;52.178;21.176;2023-04-01T11:26:09;98686.20;;;12.20
76898;BMP180;65856;52.178;21.176;2023-04-01T11:29:18;98693.40;;;12.30
76898;BMP180;65856;52.178;21.176;2023-04-01T11:32:01;98697.60;;;12.40
76898;BMP180;65856;52.178;21.176;2023-04-01T11:34:59;98695.00;;;12.40
76898;BMP180;65856;52.178;21.176;2023-04-01T11:37:44;98693.00;;;12.50
76898;BMP180;65856;52.178;21.176;2023-04-01T11:40:28;98692.40;;;12.60
76898;BMP180;65856;52.178;21.176;2023-04-01T11:43:11;98689.60;;;12.60
76898;BMP180;65856;52.178;21.176;2023-04-01T11:45:51;98690.80;;;12.70
76898;BMP180;65856;52.178;21.176;2023-04-01T11:48:45;98688.00;;;12.70
76898;BMP180;65856;52.178;21.176;2023-04-01T11:51:47;98689.60;;;12.80
76898;BMP180;65856;52.178;21.176;2023-04-01T11:54:45;98694.60;;;12.90
76898;BMP180;65856;52.178;21.176;2023-04-01T11:58:02;98690.80;;;12.90
76898;BMP180;65856;52.178;21.176;2023-04-01T12:01:05;98696.80;;;12.90
76898;BMP180;65856;52.178;21.176;2023-04-01T12:04:10;98696.80;;;12.90
76898;BMP180;65856;52.178;21.176;2023-04-01T12:06:50;98692.60;;;12.88
76898;BMP180;65856;52.178;21.176;2023-04-01T12:09:33;98695.80;;;12.82
76898;BMP180;65856;52.178;21.176;2023-04-01T12:12:19;98697.00;;;12.88
76898;BMP180;65856;52.178;21.176;2023-04-01T12:15:05;98697.80;;;12.90
76898;BMP180;65856;52.178;21.176;2023-04-01T12:17:46;98700.20;;;12.90
76898;BMP180;65856;52.178;21.176;2023-04-01T12:20:39;98705.60;;;13.00
76898;BMP180;65856;52.178;21.176;2023-04-01T12:23:37;98703.80;;;13.00
76898;BMP180;65856;52.178;21.176;2023-04-01T12:26:29;98704.40;;;13.08
76898;BMP180;65856;52.178;21.176;2023-04-01T12:29:23;98702.80;;;13.00
76898;BMP180;65856;52.178;21.176;2023-04-01T12:32:09;98708.00;;;13.00
76898;BMP180;65856;52.178;21.176;2023-04-01T12:34:58;98707.60;;;12.94
76898;BMP180;65856;52.178;21.176;2023-04-01T12:37:41;98706.20;;;13.00
76898;BMP180;65856;52.178;21.176;2023-04-01T12:40:35;98706.80;;;12.96
76898;BMP180;65856;52.178;21.176;2023-04-01T12:43:31;98706.40;;;13.00
76898;BMP180;65856;52.178;21.176;2023-04-01T12:46:15;98707.20;;;13.00
76898;BMP180;65856;52.178;21.176;2023-04-01T12:49:16;98707.80;;;13.00
76898;BMP180;65856;52.178;21.176;2023-04-01T12:52:08;98708.00;;;13.00
76898;BMP180;65856;52.178;21.176;2023-04-01T12:55:12;98707.40;;;13.00
76898;BMP180;65856;52.178;21.176;2023-04-01T12:58:25;98710.20;;;13.00
76898;BMP180;65856;52.178;21.176;2023-04-01T13:01:23;98710.60;;;13.10
76898;BMP180;65856;52.178;21.176;2023-04-01T13:04:37;98713.20;;;13.10
76898;BMP180;65856;52.178;21.176;2023-04-01T13:07:28;98720.20;;;13.20
76898;BMP180;65856;52.178;21.176;2023-04-01T13:10:13;98721.80;;;13.20
76898;BMP180;65856;52.178;21.176;2023-04-01T13:15:53;98723.80;;;13.30
76898;BMP180;65856;52.178;21.176;2023-04-01T13:18:37;98722.00;;;13.24
76898;BMP180;65856;52.178;21.176;2023-04-01T13:21:19;98728.40;;;13.20
76898;BMP180;65856;52.178;21.176;2023-04-01T13:24:02;98725.20;;;13.20
76898;BMP180;65856;52.178;21.176;2023-04-01T13:26:45;98724.80;;;13.20
76898;BMP180;65856;52.178;21.176;2023-04-01T13:29:25;98731.20;;;13.20
76898;BMP180;65856;52.178;21.176;2023-04-01T13:32:18;98729.00;;;13.20
76898;BMP180;65856;52.178;21.176;2023-04-01T13:35:08;98731.00;;;13.30
76898;BMP180;65856;52.178;21.176;2023-04-01T13:37:54;98735.20;;;13.30
76898;BMP180;65856;52.178;21.176;2023-04-01T13:40:45;98733.80;;;13.30
76898;BMP180;65856;52.178;21.176;2023-04-01T13:43:23;98733.40;;;13.30
76898;BMP180;65856;52.178;21.176;2023-04-01T13:46:19;98741.00;;;13.30
76898;BMP180;65856;52.178;21.176;2023-04-01T13:49:31;98739.80;;;13.32
76898;BMP180;65856;52.178;21.176;2023-04-01T13:52:33;98739.80;;;13.30
76898;BMP180;65856;52.178;21.176;2023-04-01T13:55:33;98750.60;;;13.30
76898;BMP180;65856;52.178;21.176;2023-04-01T13:58:35;98750.80;;;13.22
76898;BMP180;65856;52.178;21.176;2023-04-01T14:01:15;98756.60;;;13.20
76898;BMP180;65856;52.178;21.176;2023-04-01T14:04:09;98756.00;;;13.16
76898;BMP180;65856;52.178;21.176;2023-04-01T14:06:56;98757.80;;;13.14
76898;BMP180;65856;52.178;21.176;2023-04-01T14:09:45;98758.60;;;13.10
76898;BMP180;65856;52.178;21.176;2023-04-01T14:12:32;98758.40;;;13.00
76898;BMP180;65856;52.178;21.176;2023-04-01T14:15:28;98762.60;;;12.90
76898;BMP180;65856;52.178;21.176;2023-04-01T14:18:15;98764.80;;;12.70
76898;BMP180;65856;52.178;21.176;2023-04-01T14:21:04;98768.80;;;12.60
76898;BMP180;65856;52.178;21.176;2023-04-01T14:24:04;98769.20;;;12.50
76898;BMP180;65856;52.178;21.176;2023-04-01T14:33:20;98776.80;;;12.30
76898;BMP180;65856;52.178;21.176;2023-04-01T14:36:08;98778.80;;;12.22
76898;BMP180;65856;52.178;21.176;2023-04-01T14:38:58;98780.80;;;12.20
76898;BMP180;65856;52.178;21.176;2023-04-01T14:41:45;98781.80;;;12.10
76898;BMP180;65856;52.178;21.176;2023-04-01T14:44:54;98781.60;;;12.10
76898;BMP180;65856;52.178;21.176;2023-04-01T14:47:44;98796.20;;;12.10
76898;BMP180;65856;52.178;21.176;2023-04-01T14:50:20;98800.20;;;12.00
76898;BMP180;65856;52.178;21.176;2023-04-01T14:53:11;98804.40;;;12.00
76898;BMP180;65856;52.178;21.176;2023-04-01T14:55:51;98801.20;;;11.90
76898;BMP180;65856;52.178;21.176;2023-04-01T14:58:25;98796.60;;;11.80
76898;BMP180;65856;52.178;21.176;2023-04-01T15:01:10;98804.60;;;11.80
76898;BMP180;65856;52.178;21.176;2023-04-01T15:03:57;98805.00;;;11.80
76898;BMP180;65856;52.178;21.176;2023-04-01T15:09:46;98814.20;;;11.70
76898;BMP180;65856;52.178;21.176;2023-04-01T15:12:30;98818.00;;;11.60
76898;BMP180;65856;52.178;21.176;2023-04-01T15:15:27;98822.40;;;11.58
76898;BMP180;65856;52.178;21.176;2023-04-01T15:18:09;98822.60;;;11.50
76898;BMP180;65856;52.178;21.176;2023-04-01T15:21:04;98829.40;;;11.40
76898;BMP180;65856;52.178;21.176;2023-04-01T15:23:56;98830.60;;;11.40
76898;BMP180;65856;52.178;21.176;2023-04-01T15:26:46;98837.20;;;11.40
76898;BMP180;65856;52.178;21.176;2023-04-01T15:29:41;98843.20;;;11.40
76898;BMP180;65856;52.178;21.176;2023-04-01T15:32:23;98846.00;;;11.30
76898;BMP180;65856;52.178;21.176;2023-04-01T15:35:07;98858.20;;;11.18
76898;BMP180;65856;52.178;21.176;2023-04-01T15:37:54;98861.60;;;11.10
76898;BMP180;65856;52.178;21.176;2023-04-01T15:40:32;98867.20;;;11.10
76898;BMP180;65856;52.178;21.176;2023-04-01T15:43:27;98869.80;;;11.00
76898;BMP180;65856;52.178;21.176;2023-04-01T15:46:23;98875.20;;;11.00
76898;BMP180;65856;52.178;21.176;2023-04-01T15:49:10;98872.80;;;10.80
76898;BMP180;65856;52.178;21.176;2023-04-01T15:55:18;98883.20;;;10.66
76898;BMP180;65856;52.178;21.176;2023-04-01T15:58:14;98884.20;;;10.54
76898;BMP180;65856;52.178;21.176;2023-04-01T16:00:57;98894.80;;;10.40
76898;BMP180;65856;52.178;21.176;2023-04-01T16:03:42;98891.80;;;10.30
76898;BMP180;65856;52.178;21.176;2023-04-01T16:06:43;98892.20;;;10.30